createdAt,value
2023-05-23T00:02:13.617Z,100492.52
2023-05-23T00:04:41.431Z,100489.83
2023-05-23T00:07:09.679Z,100489.59
2023-05-23T00:09:37.268Z,100489.66
2023-05-23T00:12:05.289Z,100481.88
2023-05-23T00:14:34.145Z,100477.80
2023-05-23T00:17:03.255Z,100475.46
2023-05-23T00:19:30.929Z,100473.13
2023-05-23T00:21:58.847Z,100468.75
2023-05-23T00:24:28.254Z,100466.75
2023-05-23T00:26:57.613Z,100460.17
2023-05-23T00:29:25.216Z,100461.99
2023-05-23T00:31:52.883Z,100464.11
2023-05-23T00:34:21.342Z,100464.27
2023-05-23T00:36:50.667Z,100462.53
2023-05-23T00:39:21.740Z,100462.83
2023-05-23T00:41:52.380Z,100462.23
2023-05-23T00:44:21.848Z,100458.37
2023-05-23T00:46:55.740Z,100459.30
2023-05-23T00:49:23.709Z,100457.02
2023-05-23T00:51:52.190Z,100454.89
2023-05-23T00:54:24.340Z,100455.72
2023-05-23T00:56:51.973Z,100453.95
2023-05-23T00:59:21.704Z,100452.48
2023-05-23T01:01:49.747Z,100450.05
2023-05-23T01:04:27.183Z,100452.17
2023-05-23T01:06:55.741Z,100446.66
2023-05-23T01:09:24.069Z,100446.56
2023-05-23T01:12:00.238Z,100446.45
2023-05-23T01:14:48.194Z,100439.40
2023-05-23T01:17:20.333Z,100444.17
2023-05-23T01:20:01.896Z,100443.75
2023-05-23T01:22:57.762Z,100446.09
2023-05-23T01:25:59.654Z,100447.98
2023-05-23T01:28:34.410Z,100445.60
2023-05-23T01:31:03.182Z,100443.66
2023-05-23T01:33:31.011Z,100440.10
2023-05-23T01:35:58.939Z,100439.98
2023-05-23T01:38:26.542Z,100437.91
2023-05-23T01:40:54.253Z,100437.98
2023-05-23T01:43:22.106Z,100437.14
2023-05-23T01:45:54.039Z,100440.13
2023-05-23T01:48:21.827Z,100440.67
2023-05-23T01:50:49.484Z,100442.79
2023-05-23T01:53:19.868Z,100444.42
2023-05-23T01:55:47.894Z,100442.88
2023-05-23T01:58:15.556Z,100441.64
2023-05-23T02:00:43.210Z,100443.55
2023-05-23T02:03:12.084Z,100445.17
2023-05-23T02:05:40.044Z,100442.92
2023-05-23T02:08:07.977Z,100440.73
2023-05-23T02:10:38.781Z,100436.67
2023-05-23T02:13:06.309Z,100435.59
2023-05-23T02:15:33.911Z,100434.14
2023-05-23T02:18:03.548Z,100434.52
2023-05-23T02:20:31.753Z,100431.39
2023-05-23T02:22:59.458Z,100430.42
2023-05-23T02:25:27.087Z,100427.94
2023-05-23T02:27:54.642Z,100426.33
2023-05-23T02:30:22.836Z,100423.52
2023-05-23T02:32:50.432Z,100420.77
2023-05-23T02:35:17.997Z,100421.35
2023-05-23T02:37:45.644Z,100421.50
2023-05-23T02:40:13.399Z,100420.27
2023-05-23T02:42:42.404Z,100415.17
2023-05-23T02:45:10.384Z,100417.63
2023-05-23T02:47:38.157Z,100418.61
2023-05-23T02:50:06.682Z,100417.36
2023-05-23T02:52:34.295Z,100417.89
2023-05-23T02:55:02.203Z,100418.52
2023-05-23T02:57:30.430Z,100420.67
2023-05-23T02:59:58.039Z,100422.18
2023-05-23T03:02:26.194Z,100420.84
2023-05-23T03:04:53.819Z,100417.17
2023-05-23T03:07:28.145Z,100416.25
2023-05-23T03:09:56.875Z,100414.44
2023-05-23T03:12:24.580Z,100412.16
2023-05-23T03:14:52.183Z,100410.21
2023-05-23T03:17:20.199Z,100412.78
2023-05-23T03:19:47.968Z,100416.05
2023-05-23T03:22:15.567Z,100412.42
2023-05-23T03:24:43.329Z,100413.02
2023-05-23T03:27:12.273Z,100413.38
2023-05-23T03:29:39.933Z,100415.95
2023-05-23T03:32:07.671Z,100420.03
2023-05-23T03:34:36.767Z,100418.88
2023-05-23T03:37:04.771Z,100420.11
2023-05-23T03:39:32.386Z,100422.40
2023-05-23T03:42:00.067Z,100419.11
2023-05-23T03:44:28.267Z,100421.67
2023-05-23T03:46:55.904Z,100420.63
2023-05-23T03:49:23.452Z,100417.47
2023-05-23T03:51:51.685Z,100415.04
2023-05-23T03:54:19.263Z,100417.73
2023-05-23T03:56:46.913Z,100417.23
2023-05-23T03:59:15.535Z,100419.69
2023-05-23T04:01:43.108Z,100421.92
2023-05-23T04:04:10.896Z,100420.67
2023-05-23T04:06:39.190Z,100421.95
2023-05-23T04:09:06.775Z,100420.54
2023-05-23T04:11:38.547Z,100414.70
2023-05-23T04:14:06.161Z,100416.96
2023-05-23T04:16:36.378Z,100411.18
2023-05-23T04:19:05.906Z,100414.98
2023-05-23T04:21:34.426Z,100420.11
2023-05-23T04:24:08.540Z,100419.25
2023-05-23T04:26:36.864Z,100419.90
2023-05-23T04:29:06.656Z,100421.11
2023-05-23T04:31:36.276Z,100419.30
2023-05-23T04:34:04.527Z,100418.66
2023-05-23T04:36:42.739Z,100420.10
2023-05-23T04:39:10.723Z,100421.86
2023-05-23T04:41:45.672Z,100415.89
2023-05-23T04:44:23.809Z,100413.43
2023-05-23T04:47:11.985Z,100418.44
2023-05-23T04:50:03.251Z,100415.03
2023-05-23T04:52:34.356Z,100414.23
2023-05-23T04:55:02.539Z,100414.71
2023-05-23T04:57:30.515Z,100415.98
2023-05-23T04:59:58.248Z,100420.86
2023-05-23T05:02:27.887Z,100414.75
2023-05-23T05:04:55.480Z,100419.88
2023-05-23T05:07:23.292Z,100421.58
2023-05-23T05:09:51.015Z,100422.22
2023-05-23T05:12:18.755Z,100421.80
2023-05-23T05:14:46.378Z,100422.30
2023-05-23T05:17:14.115Z,100422.36
2023-05-23T05:20:08.640Z,100422.54
2023-05-23T05:22:40.550Z,100418.92
2023-05-23T05:25:09.892Z,100420.40
2023-05-23T05:27:40.328Z,100424.81
2023-05-23T05:30:11.360Z,100422.02
2023-05-23T05:32:48.593Z,100424.84
2023-05-23T05:35:17.078Z,100419.25
2023-05-23T05:37:46.021Z,100418.41
2023-05-23T05:40:14.232Z,100419.04
2023-05-23T05:42:46.220Z,100420.45
2023-05-23T05:45:13.885Z,100415.38
2023-05-23T05:47:43.446Z,100416.09
2023-05-23T05:50:11.534Z,100413.48
2023-05-23T05:52:40.293Z,100413.42
2023-05-23T05:55:11.666Z,100410.09
2023-05-23T05:57:40.943Z,100406.69
2023-05-23T06:00:19.338Z,100406.60
2023-05-23T06:02:51.990Z,100409.54
2023-05-23T06:05:42.551Z,100412.09
2023-05-23T06:08:10.600Z,100409.48
2023-05-23T06:10:39.889Z,100401.81
2023-05-23T06:13:07.810Z,100403.41
2023-05-23T06:15:37.334Z,100403.48
2023-05-23T06:18:04.901Z,100395.98
2023-05-23T06:20:32.596Z,100395.48
2023-05-23T06:23:04.361Z,100390.40
2023-05-23T06:25:32.737Z,100391.95
2023-05-23T06:28:01.044Z,100393.86
2023-05-23T06:30:30.351Z,100392.42
2023-05-23T06:32:58.159Z,100384.52
2023-05-23T06:35:27.708Z,100382.27
2023-05-23T06:37:56.585Z,100377.68
2023-05-23T06:40:24.322Z,100379.67
2023-05-23T06:42:52.157Z,100376.14
2023-05-23T06:45:39.453Z,100372.67
2023-05-23T06:48:07.008Z,100369.15
2023-05-23T06:50:36.438Z,100367.02
2023-05-23T06:53:04.660Z,100364.62
2023-05-23T06:55:34.168Z,100361.54
2023-05-23T06:58:04.284Z,100358.09
2023-05-23T07:00:32.170Z,100356.53
2023-05-23T07:03:07.574Z,100354.45
2023-05-23T07:05:38.628Z,100350.20
2023-05-23T07:08:11.471Z,100347.75
2023-05-23T07:10:42.114Z,100349.14
2023-05-23T07:13:26.683Z,100347.41
2023-05-23T07:15:55.804Z,100344.45
2023-05-23T07:18:24.241Z,100345.19
2023-05-23T07:20:52.694Z,100343.43
2023-05-23T07:23:23.976Z,100347.02
2023-05-23T07:26:01.860Z,100344.05
2023-05-23T07:28:37.818Z,100343.33
2023-05-23T07:31:05.719Z,100343.27
2023-05-23T07:33:34.721Z,100341.88
2023-05-23T07:36:04.466Z,100337.22
2023-05-23T07:38:32.085Z,100336.59
2023-05-23T07:41:10.667Z,100332.66
2023-05-23T07:43:39.709Z,100334.88
2023-05-23T07:46:07.747Z,100329.37
2023-05-23T07:48:36.071Z,100329.56
2023-05-23T07:51:04.154Z,100327.16
2023-05-23T07:53:31.950Z,100323.45
2023-05-23T07:55:59.557Z,100323.33
2023-05-23T07:58:29.692Z,100319.45
2023-05-23T08:00:58.264Z,100316.30
2023-05-23T08:03:45.969Z,100312.31
2023-05-23T08:06:19.235Z,100312.54
2023-05-23T08:08:46.862Z,100310.90
2023-05-23T08:11:15.762Z,100308.82
2023-05-23T08:13:46.734Z,100308.70
2023-05-23T08:16:38.104Z,100309.47
2023-05-23T08:19:21.876Z,100308.95
2023-05-23T08:21:49.787Z,100306.89
2023-05-23T08:24:17.362Z,100301.25
2023-05-23T08:26:45.201Z,100301.73
2023-05-23T08:29:14.686Z,100298.87
2023-05-23T08:31:42.915Z,100291.75
2023-05-23T08:34:11.664Z,100289.91
2023-05-23T08:36:40.611Z,100286.63
2023-05-23T08:39:11.871Z,100284.89
2023-05-23T08:42:01.770Z,100283.94
2023-05-23T08:44:29.278Z,100279.88
2023-05-23T08:47:02.654Z,100271.63
2023-05-23T08:49:44.195Z,100272.74
2023-05-23T08:52:13.397Z,100271.13
2023-05-23T08:54:42.944Z,100268.06
2023-05-23T08:57:11.486Z,100264.00
2023-05-23T08:59:41.522Z,100266.74
2023-05-23T09:02:12.667Z,100262.11
2023-05-23T09:04:40.369Z,100255.44
2023-05-23T09:07:17.666Z,100253.09
2023-05-23T09:09:45.892Z,100254.13
2023-05-23T09:12:15.540Z,100250.11
2023-05-23T09:14:44.814Z,100248.98
2023-05-23T09:17:17.238Z,100252.13
2023-05-23T09:19:47.246Z,100248.88
2023-05-23T09:22:27.694Z,100247.64
2023-05-23T09:25:02.184Z,100246.42
2023-05-23T09:27:31.347Z,100241.04
2023-05-23T09:29:59.061Z,100239.14
2023-05-23T09:32:28.089Z,100229.77
2023-05-23T09:34:56.480Z,100230.46
2023-05-23T09:37:34.819Z,100233.83
2023-05-23T09:40:10.660Z,100235.27
2023-05-23T09:42:45.719Z,100234.88
2023-05-23T09:45:13.739Z,100229.42
2023-05-23T09:47:54.128Z,100224.89
2023-05-23T09:50:23.570Z,100217.33
2023-05-23T09:52:54.510Z,100221.00
2023-05-23T09:55:22.058Z,100220.04
2023-05-23T09:57:56.941Z,100225.36
2023-05-23T10:00:25.637Z,100222.32
2023-05-23T10:03:08.515Z,100228.31
2023-05-23T10:05:49.869Z,100231.24
2023-05-23T10:08:23.171Z,100226.95
2023-05-23T10:10:58.845Z,100225.42
2023-05-23T10:13:27.338Z,100223.42
2023-05-23T10:16:22.463Z,100220.09
2023-05-23T10:18:54.004Z,100220.11
2023-05-23T10:21:25.029Z,100220.46
2023-05-23T10:23:52.581Z,100217.97
2023-05-23T10:26:20.115Z,100218.17
2023-05-23T10:28:47.661Z,100217.39
2023-05-23T10:31:15.298Z,100214.88
2023-05-23T10:33:44.214Z,100218.01
2023-05-23T10:36:34.318Z,100209.80
2023-05-23T10:39:08.644Z,100206.17
2023-05-23T10:41:43.180Z,100203.92
2023-05-23T10:44:29.609Z,100197.68
2023-05-23T10:47:04.715Z,100193.73
2023-05-23T10:49:49.026Z,100190.71
2023-05-23T10:52:17.619Z,100192.71
2023-05-23T10:54:47.613Z,100189.23
2023-05-23T10:57:21.220Z,100186.61
2023-05-23T10:59:52.202Z,100182.80
2023-05-23T11:02:20.606Z,100187.84
2023-05-23T11:04:48.886Z,100192.09
2023-05-23T11:08:08.291Z,100189.64
2023-05-23T11:10:55.492Z,100183.74
2023-05-23T11:13:23.533Z,100182.61
2023-05-23T11:15:51.205Z,100178.61
2023-05-23T11:18:31.265Z,100173.21
2023-05-23T11:20:58.859Z,100170.31
2023-05-23T11:23:26.409Z,100175.87
2023-05-23T11:25:54.103Z,100172.05
2023-05-23T11:28:21.992Z,100168.58
2023-05-23T11:30:49.858Z,100171.52
2023-05-23T11:33:18.963Z,100178.55
2023-05-23T11:35:48.006Z,100180.27
2023-05-23T11:38:16.774Z,100179.25
2023-05-23T11:40:47.303Z,100176.11
2023-05-23T11:43:16.997Z,100174.27
2023-05-23T11:45:47.130Z,100175.38
2023-05-23T11:48:16.775Z,100177.80
2023-05-23T11:50:48.589Z,100176.71
2023-05-23T11:53:18.798Z,100177.88
2023-05-23T11:55:55.232Z,100174.64
2023-05-23T11:58:23.141Z,100166.98
2023-05-23T12:00:52.205Z,100171.50
2023-05-23T12:03:21.568Z,100172.86
2023-05-23T12:05:49.347Z,100170.02
2023-05-23T12:08:16.918Z,100169.38
2023-05-23T12:10:54.703Z,100171.80
2023-05-23T12:13:24.548Z,100170.51
2023-05-23T12:16:03.343Z,100165.75
2023-05-23T12:18:32.623Z,100167.27
2023-05-23T12:21:05.991Z,100161.02
2023-05-23T12:23:35.142Z,100157.81
2023-05-23T12:26:10.478Z,100156.08
2023-05-23T12:28:48.128Z,100149.61
2023-05-23T12:31:19.949Z,100152.28
2023-05-23T12:33:48.190Z,100147.52
2023-05-23T12:36:29.615Z,100143.66
2023-05-23T12:39:04.744Z,100141.73
2023-05-23T12:41:33.306Z,100139.69
2023-05-23T12:44:01.013Z,100141.32
2023-05-23T12:46:28.775Z,100137.41
2023-05-23T12:48:56.319Z,100138.96
2023-05-23T12:51:23.924Z,100128.05
2023-05-23T12:53:51.513Z,100124.65
2023-05-23T12:56:19.072Z,100124.38
2023-05-23T12:58:46.623Z,100123.47
2023-05-23T13:01:14.542Z,100119.94
2023-05-23T13:03:42.383Z,100129.51
2023-05-23T13:06:10.102Z,100134.69
2023-05-23T13:08:37.727Z,100130.60
2023-05-23T13:11:05.835Z,100125.24
2023-05-23T13:13:33.967Z,100124.21
2023-05-23T13:16:01.762Z,100119.98
2023-05-23T13:18:29.417Z,100116.70
2023-05-23T13:20:57.095Z,100115.38
2023-05-23T13:23:26.022Z,100110.20
2023-05-23T13:25:53.638Z,100112.39
2023-05-23T13:28:21.262Z,100111.91
2023-05-23T13:30:50.965Z,100113.01
2023-05-23T13:33:18.737Z,100110.11
2023-05-23T13:35:49.462Z,100108.14
2023-05-23T13:38:20.533Z,100108.22
2023-05-23T13:40:50.484Z,100107.60
2023-05-23T13:43:19.045Z,100104.92
2023-05-23T13:45:47.567Z,100109.33
2023-05-23T13:48:15.265Z,100109.40
2023-05-23T13:50:43.456Z,100105.46
2023-05-23T13:53:15.464Z,100105.79
2023-05-23T13:55:43.488Z,100109.48
2023-05-23T13:58:14.237Z,100107.59
2023-05-23T14:00:41.961Z,100108.68
2023-05-23T14:03:10.058Z,100108.50
2023-05-23T14:05:37.832Z,100102.92
2023-05-23T14:08:05.594Z,100102.45
2023-05-23T14:10:36.097Z,100105.16
2023-05-23T14:13:03.843Z,100106.20
2023-05-23T14:15:34.364Z,100099.33
2023-05-23T14:18:02.254Z,100098.90
2023-05-23T14:20:30.209Z,100096.95
2023-05-23T14:22:57.835Z,100106.14
2023-05-23T14:25:25.793Z,100106.17
2023-05-23T14:27:53.464Z,100110.94
2023-05-23T14:30:21.092Z,100112.56
2023-05-23T14:32:48.846Z,100112.27
2023-05-23T14:35:16.513Z,100114.81
2023-05-23T14:37:45.449Z,100120.65
2023-05-23T14:40:14.382Z,100129.40
2023-05-23T14:42:42.830Z,100130.63
2023-05-23T14:45:10.863Z,100133.00
2023-05-23T14:47:39.125Z,100130.80
2023-05-23T14:50:07.426Z,100138.88
2023-05-23T14:52:34.926Z,100139.20
2023-05-23T14:55:02.503Z,100137.11
2023-05-23T14:57:30.049Z,100132.47
2023-05-23T14:59:57.657Z,100131.05
2023-05-23T15:02:25.250Z,100132.16
2023-05-23T15:04:52.966Z,100132.20
2023-05-23T15:07:20.509Z,100129.42
2023-05-23T15:09:48.697Z,100124.73
2023-05-23T15:12:16.447Z,100123.23
2023-05-23T15:14:44.217Z,100123.05
2023-05-23T15:17:13.242Z,100120.92
2023-05-23T15:19:43.321Z,100119.33
2023-05-23T15:22:18.742Z,100119.19
2023-05-23T15:25:00.834Z,100128.78
2023-05-23T15:27:28.391Z,100127.38
2023-05-23T15:29:56.022Z,100129.14
2023-05-23T15:32:23.666Z,100123.20
2023-05-23T15:34:51.550Z,100121.66
2023-05-23T15:37:19.192Z,100122.42
2023-05-23T15:39:47.322Z,100124.14
2023-05-23T15:42:16.878Z,100120.45
2023-05-23T15:44:44.415Z,100116.96
2023-05-23T15:47:12.106Z,100121.66
2023-05-23T15:49:39.651Z,100117.29
2023-05-23T15:52:07.181Z,100110.63
2023-05-23T15:54:34.712Z,100110.30
2023-05-23T15:57:03.549Z,100108.45
2023-05-23T15:59:34.008Z,100109.33
2023-05-23T16:02:05.509Z,100109.80
2023-05-23T16:04:33.336Z,100112.22
2023-05-23T16:07:00.897Z,100114.01
2023-05-23T16:09:28.559Z,100114.52
2023-05-23T16:11:57.328Z,100114.07
2023-05-23T16:14:25.527Z,100116.40
2023-05-23T16:16:53.203Z,100115.54
2023-05-23T16:19:20.931Z,100116.64
2023-05-23T16:21:50.508Z,100113.35
2023-05-23T16:24:19.569Z,100111.39
2023-05-23T16:26:49.344Z,100109.13
2023-05-23T16:29:17.112Z,100105.81
2023-05-23T16:31:44.733Z,100106.14
2023-05-23T16:34:12.279Z,100108.79
2023-05-23T16:36:39.823Z,100112.73
2023-05-23T16:39:07.367Z,100121.58
2023-05-23T16:41:34.935Z,100126.23
2023-05-23T16:44:02.514Z,100122.66
2023-05-23T16:46:30.163Z,100122.29
2023-05-23T16:48:57.735Z,100128.30
2023-05-23T16:51:25.903Z,100137.59
2023-05-23T16:53:53.523Z,100138.36
2023-05-23T16:56:23.237Z,100139.89
2023-05-23T16:58:51.250Z,100140.67
2023-05-23T17:01:20.141Z,100141.71
2023-05-23T17:03:47.778Z,100142.09
2023-05-23T17:06:15.459Z,100145.96
2023-05-23T17:08:43.116Z,100145.19
2023-05-23T17:11:10.888Z,100149.15
2023-05-23T17:13:38.433Z,100150.33
2023-05-23T17:16:05.997Z,100152.02
2023-05-23T17:18:33.652Z,100151.81
2023-05-23T17:21:01.255Z,100151.16
2023-05-23T17:23:29.318Z,100148.10
2023-05-23T17:25:56.885Z,100145.08
2023-05-23T17:28:24.436Z,100145.82
2023-05-23T17:30:53.359Z,100146.57
2023-05-23T17:33:21.026Z,100145.27
2023-05-23T17:35:48.661Z,100146.08
2023-05-23T17:38:16.431Z,100144.18
2023-05-23T17:40:44.208Z,100147.55
2023-05-23T17:43:12.555Z,100146.48
2023-05-23T17:45:40.154Z,100148.57
2023-05-23T17:48:07.949Z,100149.19
2023-05-23T17:50:38.288Z,100150.76
2023-05-23T17:53:06.388Z,100160.10
2023-05-23T17:55:33.968Z,100165.84
2023-05-23T17:58:01.643Z,100166.58
2023-05-23T18:00:29.281Z,100171.00
2023-05-23T18:02:57.557Z,100172.44
2023-05-23T18:05:25.234Z,100176.94
2023-05-23T18:07:52.905Z,100177.33
2023-05-23T18:10:20.564Z,100176.13
2023-05-23T18:12:48.270Z,100176.55
2023-05-23T18:15:16.087Z,100176.91
2023-05-23T18:17:43.858Z,100177.05
2023-05-23T18:20:13.000Z,100177.57
2023-05-23T18:22:41.478Z,100174.08
2023-05-23T18:25:09.598Z,100178.95
2023-05-23T18:27:39.158Z,100180.02
2023-05-23T18:30:08.226Z,100183.27
2023-05-23T18:32:36.093Z,100185.13
2023-05-23T18:35:03.793Z,100186.95
2023-05-23T18:37:31.464Z,100179.84
2023-05-23T18:40:00.581Z,100181.30
2023-05-23T18:42:28.196Z,100178.02
2023-05-23T18:44:55.948Z,100177.27
2023-05-23T18:47:24.098Z,100177.39
2023-05-23T18:49:52.223Z,100176.58
2023-05-23T18:52:20.102Z,100177.55
2023-05-23T18:54:54.131Z,100174.02
2023-05-23T18:57:22.973Z,100178.48
2023-05-23T18:59:51.747Z,100186.61
2023-05-23T19:02:26.851Z,100188.59
2023-05-23T19:04:55.443Z,100190.59
2023-05-23T19:07:23.155Z,100191.52
2023-05-23T19:09:50.986Z,100188.73
2023-05-23T19:12:19.294Z,100189.27
2023-05-23T19:14:47.219Z,100194.33
2023-05-23T19:17:14.799Z,100191.12
2023-05-23T19:19:43.606Z,100192.89
2023-05-23T19:22:11.396Z,100194.17
2023-05-23T19:24:40.286Z,100192.69
2023-05-23T19:27:07.978Z,100194.59
2023-05-23T19:29:35.659Z,100196.95
2023-05-23T19:32:03.355Z,100195.39
2023-05-23T19:34:31.053Z,100192.67
2023-05-23T19:37:00.658Z,100195.30
2023-05-23T19:39:28.182Z,100193.89
2023-05-23T19:41:55.838Z,100199.04
2023-05-23T19:44:23.442Z,100202.63
2023-05-23T19:46:50.992Z,100200.45
2023-05-23T19:49:19.573Z,100201.66
2023-05-23T19:51:47.204Z,100196.09
2023-05-23T19:54:15.573Z,100197.23
2023-05-23T19:56:44.440Z,100196.39
2023-05-23T19:59:12.808Z,100197.39
2023-05-23T20:01:40.853Z,100199.83
2023-05-23T20:04:12.815Z,100199.47
2023-05-23T20:06:40.916Z,100202.69
2023-05-23T20:09:08.562Z,100203.45
2023-05-23T20:11:36.314Z,100209.10
2023-05-23T20:14:04.031Z,100210.77
2023-05-23T20:16:32.032Z,100209.45
2023-05-23T20:18:59.635Z,100213.05
2023-05-23T20:21:27.744Z,100216.70
2023-05-23T20:23:55.331Z,100216.63
2023-05-23T20:26:22.879Z,100219.73
2023-05-23T20:28:50.613Z,100216.75
2023-05-23T20:31:19.787Z,100218.91
2023-05-23T20:33:48.011Z,100218.13
2023-05-23T20:36:19.710Z,100220.65
2023-05-23T20:38:48.017Z,100217.14
2023-05-23T20:41:15.574Z,100216.45
2023-05-23T20:43:44.765Z,100215.05
2023-05-23T20:46:13.792Z,100214.35
2023-05-23T20:48:42.035Z,100219.42
2023-05-23T20:51:09.699Z,100223.09
2023-05-23T20:53:39.114Z,100223.64
2023-05-23T20:56:10.397Z,100226.78
2023-05-23T20:58:38.202Z,100227.76
2023-05-23T21:01:06.469Z,100225.61
2023-05-23T21:03:34.080Z,100225.11
2023-05-23T21:06:01.665Z,100229.96
2023-05-23T21:08:29.194Z,100229.02
2023-05-23T21:10:56.832Z,100226.32
2023-05-23T21:13:24.352Z,100226.00
2023-05-23T21:15:51.913Z,100230.05
2023-05-23T21:18:19.550Z,100224.77
2023-05-23T21:20:47.208Z,100226.99
2023-05-23T21:23:14.796Z,100224.52
2023-05-23T21:25:42.519Z,100224.65
2023-05-23T21:28:10.149Z,100227.66
2023-05-23T21:30:38.211Z,100230.18
2023-05-23T21:33:06.086Z,100230.36
2023-05-23T21:35:36.674Z,100233.11
2023-05-23T21:38:04.303Z,100230.60
2023-05-23T21:40:32.173Z,100229.30
2023-05-23T21:42:59.900Z,100229.48
2023-05-23T21:45:30.592Z,100233.13
2023-05-23T21:47:58.141Z,100226.27
2023-05-23T21:50:25.701Z,100227.47
2023-05-23T21:52:53.252Z,100231.14
2023-05-23T21:55:21.152Z,100226.27
2023-05-23T21:57:48.995Z,100230.24
2023-05-23T22:00:19.734Z,100226.03
2023-05-23T22:02:48.520Z,100226.20
2023-05-23T22:05:16.460Z,100225.09
2023-05-23T22:07:44.034Z,100224.95
2023-05-23T22:10:12.508Z,100224.60
2023-05-23T22:12:40.295Z,100222.53
2023-05-23T22:15:08.578Z,100224.70
2023-05-23T22:17:36.768Z,100225.31
2023-05-23T22:20:05.529Z,100224.92
2023-05-23T22:22:33.076Z,100226.17
2023-05-23T22:25:00.825Z,100223.65
2023-05-23T22:27:28.451Z,100222.96
2023-05-23T22:29:57.409Z,100227.34
2023-05-23T22:32:25.132Z,100229.66
2023-05-23T22:34:52.867Z,100233.34
2023-05-23T22:37:20.461Z,100231.55
2023-05-23T22:39:47.994Z,100229.77
2023-05-23T22:42:15.546Z,100228.44
2023-05-23T22:44:43.057Z,100229.62
2023-05-23T22:47:13.832Z,100233.47
2023-05-23T22:49:42.636Z,100227.48
2023-05-23T22:52:10.158Z,100227.20
2023-05-23T22:54:37.761Z,100228.92
2023-05-23T22:57:05.691Z,100229.30
2023-05-23T22:59:33.270Z,100230.80
2023-05-23T23:02:00.962Z,100229.63
2023-05-23T23:04:31.086Z,100228.50
2023-05-23T23:06:59.480Z,100229.05
2023-05-23T23:09:27.194Z,100230.08
2023-05-23T23:11:54.905Z,100231.73
2023-05-23T23:14:22.554Z,100233.35
2023-05-23T23:16:50.739Z,100232.23
2023-05-23T23:19:19.039Z,100231.08
2023-05-23T23:21:46.645Z,100228.04
2023-05-23T23:24:14.248Z,100227.59
2023-05-23T23:26:41.852Z,100233.68
2023-05-23T23:29:09.454Z,100231.37
2023-05-23T23:31:37.119Z,100234.22
2023-05-23T23:34:04.721Z,100232.25
2023-05-23T23:36:32.308Z,100231.27
2023-05-23T23:39:01.162Z,100227.86
2023-05-23T23:41:28.848Z,100226.71
2023-05-23T23:43:57.003Z,100225.74
2023-05-23T23:46:24.614Z,100225.10
2023-05-23T23:48:53.659Z,100227.10
2023-05-23T23:51:21.322Z,100229.48
2023-05-23T23:53:51.679Z,100225.55
2023-05-23T23:56:22.913Z,100222.91
2023-05-23T23:58:51.101Z,100222.56
